Time;durP1;ratioP1;P1;durP2;ratioP2;P2;SDS_P1;SDS_P2;PMS_P1;PMS_P2;Temp;Humidity;BMP_temperature;BMP_pressure;BME280_temperature;BME280_humidity;BME280_pressure;Samples;Min_cycle;Max_cycle;Signal;HPM_P1;HPM_P2
2022/04/02 00:00:31;;;;;;;1.80;0.60;;;;;;;;;;5021074;28;20133;-65
2022/04/02 00:02:58;;;;;;;2.28;0.70;;;;;;;;;;5021247;28;20039;-65
2022/04/02 00:05:27;;;;;;;2.80;0.75;;;;;;;;;;5022605;28;20037;-64
2022/04/02 00:07:54;;;;;;;2.30;0.68;;;;;;;;;;5021602;28;20754;-63
2022/04/02 00:10:21;;;;;;;3.05;0.80;;;;;;;;;;5022684;28;20045;-65
2022/04/02 00:12:47;;;;;;;4.03;0.90;;;;;;;;;;5021709;28;20045;-66
2022/04/02 00:15:14;;;;;;;3.65;0.70;;;;;;;;;;5021740;28;20042;-66
2022/04/02 00:17:41;;;;;;;5.95;0.65;;;;;;;;;;5021300;28;20042;-63
2022/04/02 00:20:08;;;;;;;5.18;0.70;;;;;;;;;;5024726;28;20056;-65
2022/04/02 00:22:37;;;;;;;4.20;0.85;;;;;;;;;;5022775;28;20117;-64
2022/04/02 00:25:04;;;;;;;4.32;0.90;;;;;;;;;;5021898;28;20055;-66
2022/04/02 00:27:31;;;;;;;3.38;0.90;;;;;;;;;;5022283;28;20130;-67
2022/04/02 00:29:57;;;;;;;6.13;0.88;;;;;;;;;;5021377;28;20029;-66
2022/04/02 00:32:24;;;;;;;4.00;0.80;;;;;;;;;;5023075;28;20029;-67
2022/04/02 00:34:51;;;;;;;3.47;0.60;;;;;;;;;;5033999;28;20500;-67
2022/04/02 00:37:17;;;;;;;1.67;0.50;;;;;;;;;;5037861;28;20041;-66
2022/04/02 00:39:44;;;;;;;3.80;0.80;;;;;;;;;;5022114;28;20049;-66
2022/04/02 00:42:11;;;;;;;3.15;0.75;;;;;;;;;;5022073;28;21165;-68
2022/04/02 00:44:37;;;;;;;4.47;1.38;;;;;;;;;;5021720;28;20037;-64
2022/04/02 00:47:04;;;;;;;5.75;2.47;;;;;;;;;;5023530;28;20087;-66
2022/04/02 00:49:31;;;;;;;3.78;1.48;;;;;;;;;;5021120;28;20052;-66
2022/04/02 00:51:58;;;;;;;2.38;0.70;;;;;;;;;;5021234;28;20037;-64
2022/04/02 00:54:24;;;;;;;4.47;0.85;;;;;;;;;;5019748;28;20185;-64
2022/04/02 00:56:51;;;;;;;3.80;0.68;;;;;;;;;;5021634;28;20124;-64
2022/04/02 00:59:18;;;;;;;3.35;0.70;;;;;;;;;;5020630;28;20053;-64
2022/04/02 01:01:45;;;;;;;4.47;0.73;;;;;;;;;;5020117;28;20049;-63
2022/04/02 01:04:13;;;;;;;2.72;0.70;;;;;;;;;;5026687;28;20049;-64
2022/04/02 01:06:41;;;;;;;2.38;0.80;;;;;;;;;;5025353;28;20109;-64
2022/04/02 01:09:09;;;;;;;2.67;0.77;;;;;;;;;;5025348;28;20045;-64
2022/04/02 01:11:40;;;;;;;4.15;0.73;;;;;;;;;;5025961;28;20044;-65
2022/04/02 01:14:07;;;;;;;3.10;0.85;;;;;;;;;;5025123;28;21087;-65
2022/04/02 01:16:34;;;;;;;3.15;0.80;;;;;;;;;;5025138;28;20087;-65
2022/04/02 01:19:01;;;;;;;5.90;0.90;;;;;;;;;;5038598;28;20510;-64
2022/04/02 01:21:29;;;;;;;2.70;0.52;;;;;;;;;;5027787;28;20405;-64
2022/04/02 01:23:56;;;;;;;4.47;0.85;;;;;;;;;;5027525;28;20064;-65
2022/04/02 01:26:23;;;;;;;4.45;0.98;;;;;;;;;;5028568;28;20041;-65
2022/04/02 01:28:53;;;;;;;3.67;0.70;;;;;;;;;;5026354;28;20037;-66
2022/04/02 01:31:21;;;;;;;2.08;0.70;;;;;;;;;;5025212;28;20069;-65
2022/04/02 01:33:49;;;;;;;2.80;0.80;;;;;;;;;;5037643;28;20038;-64
2022/04/02 01:36:16;;;;;;;2.47;0.82;;;;;;;;;;5027238;28;20044;-65
2022/04/02 01:38:42;;;;;;;2.70;0.70;;;;;;;;;;5027870;28;20045;-65
2022/04/02 01:41:09;;;;;;;3.90;0.90;;;;;;;;;;5015996;28;20036;-65
2022/04/02 01:43:36;;;;;;;4.72;1.00;;;;;;;;;;5025957;28;20034;-65
2022/04/02 01:46:03;;;;;;;4.53;0.82;;;;;;;;;;5026575;28;20164;-65
2022/04/02 01:48:30;;;;;;;4.90;0.90;;;;;;;;;;5025741;28;20046;-65
2022/04/02 01:50:58;;;;;;;5.38;1.00;;;;;;;;;;5027455;28;20038;-65
2022/04/02 01:53:25;;;;;;;4.80;1.10;;;;;;;;;;5023635;28;20056;-66
2022/04/02 01:55:52;;;;;;;3.05;0.95;;;;;;;;;;5024743;28;20532;-65
2022/04/02 01:58:22;;;;;;;3.35;0.98;;;;;;;;;;5025840;28;20921;-65
2022/04/02 02:00:49;;;;;;;3.88;1.00;;;;;;;;;;5025288;28;20041;-64
2022/04/02 02:03:16;;;;;;;4.32;0.90;;;;;;;;;;5025779;28;20052;-64
2022/04/02 02:05:42;;;;;;;2.72;0.73;;;;;;;;;;5024622;28;20052;-66
2022/04/02 02:08:10;;;;;;;4.60;0.85;;;;;;;;;;5027348;28;20108;-64
2022/04/02 02:10:37;;;;;;;4.78;1.17;;;;;;;;;;5026439;28;20049;-65
2022/04/02 02:13:03;;;;;;;3.30;0.85;;;;;;;;;;5027120;28;20088;-65
2022/04/02 02:15:30;;;;;;;6.40;1.00;;;;;;;;;;5025641;28;20064;-65
2022/04/02 02:17:57;;;;;;;4.47;1.08;;;;;;;;;;5026408;28;20045;-65
2022/04/02 02:20:24;;;;;;;3.20;0.93;;;;;;;;;;5023498;28;20494;-64
2022/04/02 02:22:51;;;;;;;6.20;1.23;;;;;;;;;;5026881;28;20034;-64
2022/04/02 02:25:18;;;;;;;5.13;0.88;;;;;;;;;;5024876;28;20079;-64
2022/04/02 02:27:45;;;;;;;6.18;1.02;;;;;;;;;;5024251;28;20029;-63
2022/04/02 02:30:13;;;;;;;3.08;0.90;;;;;;;;;;5026254;28;21796;-65
2022/04/02 02:32:40;;;;;;;3.03;0.70;;;;;;;;;;5024085;28;20642;-64
2022/04/02 02:38:22;;;;;;;4.80;1.20;;;;;;;;;;5024439;28;20091;-64
2022/04/02 02:40:50;;;;;;;6.05;1.08;;;;;;;;;;5014557;28;20053;-64
2022/04/02 02:43:18;;;;;;;2.70;1.00;;;;;;;;;;5024577;28;20116;-64
2022/04/02 02:45:45;;;;;;;6.72;1.20;;;;;;;;;;5022415;28;20083;-63
2022/04/02 02:48:12;;;;;;;3.75;1.08;;;;;;;;;;5024258;28;20037;-64
2022/04/02 02:50:39;;;;;;;4.60;1.25;;;;;;;;;;5023798;28;20087;-64
2022/04/02 02:53:05;;;;;;;7.65;1.27;;;;;;;;;;5023856;28;20151;-63
2022/04/02 02:55:32;;;;;;;4.07;1.08;;;;;;;;;;5023376;28;20048;-64
2022/04/02 02:57:59;;;;;;;4.82;0.95;;;;;;;;;;5025074;28;20038;-64
2022/04/02 03:00:26;;;;;;;2.63;1.00;;;;;;;;;;5023469;28;20061;-65
2022/04/02 03:02:53;;;;;;;2.85;0.88;;;;;;;;;;5023491;28;20098;-64
2022/04/02 03:05:20;;;;;;;4.15;1.20;;;;;;;;;;5023631;28;20057;-64
2022/04/02 03:07:51;;;;;;;6.45;1.17;;;;;;;;;;5024194;28;20593;-64
2022/04/02 03:10:25;;;;;;;3.65;1.17;;;;;;;;;;5026446;28;20056;-64
2022/04/02 03:12:52;;;;;;;3.58;1.17;;;;;;;;;;5023685;28;20049;-64
2022/04/02 03:15:20;;;;;;;5.45;1.40;;;;;;;;;;5024086;28;20049;-63
2022/04/02 03:17:47;;;;;;;7.05;1.30;;;;;;;;;;5024027;28;20212;-64
2022/04/02 03:20:15;;;;;;;3.17;0.90;;;;;;;;;;5023940;28;20096;-64
2022/04/02 03:22:43;;;;;;;5.90;1.30;;;;;;;;;;5023201;28;20041;-64
2022/04/02 03:25:13;;;;;;;3.72;1.00;;;;;;;;;;5021901;28;20144;-63
2022/04/02 03:27:40;;;;;;;2.88;0.98;;;;;;;;;;5023003;28;20136;-66
2022/04/02 03:30:11;;;;;;;5.05;1.10;;;;;;;;;;5023376;28;20048;-63
2022/04/02 03:32:38;;;;;;;4.97;1.20;;;;;;;;;;5024335;28;20041;-64
2022/04/02 03:35:06;;;;;;;3.38;1.13;;;;;;;;;;5026266;28;20037;-64
2022/04/02 03:37:36;;;;;;;6.22;1.58;;;;;;;;;;5025103;28;20116;-63
2022/04/02 03:40:05;;;;;;;4.38;1.40;;;;;;;;;;5025409;28;20057;-64
2022/04/02 03:42:32;;;;;;;4.60;1.63;;;;;;;;;;5024535;28;20037;-62
2022/04/02 03:44:59;;;;;;;5.88;2.53;;;;;;;;;;5023054;28;20046;-62
2022/04/02 03:47:26;;;;;;;3.75;1.33;;;;;;;;;;5023555;28;20030;-64
2022/04/02 03:49:52;;;;;;;4.53;1.10;;;;;;;;;;5024108;28;20860;-64
2022/04/02 03:52:19;;;;;;;5.82;1.20;;;;;;;;;;5023307;28;20057;-64
2022/04/02 03:54:46;;;;;;;8.15;1.33;;;;;;;;;;5023598;28;20083;-65
2022/04/02 03:57:14;;;;;;;3.53;1.02;;;;;;;;;;5024129;28;20041;-64
2022/04/02 03:59:41;;;;;;;3.78;1.00;;;;;;;;;;5023739;28;20051;-63
2022/04/02 04:02:08;;;;;;;3.38;1.00;;;;;;;;;;5023273;28;20041;-66
2022/04/02 04:04:36;;;;;;;8.57;1.38;;;;;;;;;;5021757;28;20095;-64
2022/04/02 04:07:03;;;;;;;6.03;1.10;;;;;;;;;;5023805;28;20148;-64
2022/04/02 04:09:29;;;;;;;3.53;0.77;;;;;;;;;;5036345;28;20059;-64
2022/04/02 04:11:56;;;;;;;7.03;1.40;;;;;;;;;;5023792;28;20569;-63
2022/04/02 04:14:27;;;;;;;4.40;1.00;;;;;;;;;;5021297;28;20099;-64
2022/04/02 04:16:54;;;;;;;4.57;1.10;;;;;;;;;;5021992;28;20149;-63
2022/04/02 04:19:21;;;;;;;4.53;1.27;;;;;;;;;;5021732;28;20125;-64
2022/04/02 04:21:49;;;;;;;4.07;1.33;;;;;;;;;;5021496;28;20045;-63
2022/04/02 04:24:16;;;;;;;7.10;1.40;;;;;;;;;;5020461;28;20041;-63
2022/04/02 04:26:43;;;;;;;3.67;1.30;;;;;;;;;;5021816;28;20085;-61
2022/04/02 04:29:10;;;;;;;7.13;1.30;;;;;;;;;;5021750;28;20045;-63
2022/04/02 04:31:37;;;;;;;5.53;1.20;;;;;;;;;;5032528;28;20033;-65
2022/04/02 04:34:04;;;;;;;11.77;1.10;;;;;;;;;;5022862;28;20752;-65
2022/04/02 04:36:31;;;;;;;3.10;1.20;;;;;;;;;;5020129;28;20514;-64
2022/04/02 04:38:58;;;;;;;3.85;1.20;;;;;;;;;;5024056;28;20049;-63
2022/04/02 04:41:25;;;;;;;6.45;1.10;;;;;;;;;;5022108;28;20056;-64
2022/04/02 04:43:52;;;;;;;3.70;1.00;;;;;;;;;;5020936;28;20029;-64
2022/04/02 04:46:20;;;;;;;6.25;1.10;;;;;;;;;;5023408;28;20122;-64
2022/04/02 04:48:47;;;;;;;4.35;1.10;;;;;;;;;;5021333;28;20041;-64
2022/04/02 04:51:14;;;;;;;3.25;0.80;;;;;;;;;;5022408;28;20037;-64
2022/04/02 04:53:41;;;;;;;3.67;0.90;;;;;;;;;;5019486;28;20065;-63
2022/04/02 04:56:08;;;;;;;5.30;0.93;;;;;;;;;;5034769;28;20525;-65
2022/04/02 04:58:35;;;;;;;2.80;0.80;;;;;;;;;;5022362;28;20432;-64
2022/04/02 05:01:02;;;;;;;2.70;0.88;;;;;;;;;;5024023;28;20114;-62
2022/04/02 05:03:32;;;;;;;4.53;1.50;;;;;;;;;;5023161;28;20041;-63
2022/04/02 05:05:59;;;;;;;29.08;7.05;;;;;;;;;;5021266;28;20585;-63
2022/04/02 05:08:26;;;;;;;16.30;4.25;;;;;;;;;;5021418;28;20045;-63
2022/04/02 05:10:53;;;;;;;9.98;3.13;;;;;;;;;;5022197;28;20038;-63
2022/04/02 05:13:20;;;;;;;4.18;1.27;;;;;;;;;;5023473;28;20068;-63
2022/04/02 05:15:47;;;;;;;3.70;1.02;;;;;;;;;;5021663;28;20779;-63
2022/04/02 05:18:14;;;;;;;3.22;1.00;;;;;;;;;;5021548;28;20057;-61
2022/04/02 05:20:41;;;;;;;3.00;0.80;;;;;;;;;;5020745;28;20041;-61
2022/04/02 05:23:08;;;;;;;3.28;1.15;;;;;;;;;;5021144;28;20049;-62
2022/04/02 05:25:36;;;;;;;2.38;0.85;;;;;;;;;;5021229;28;20037;-61
2022/04/02 05:28:06;;;;;;;3.53;1.05;;;;;;;;;;5023915;28;20038;-61
2022/04/02 05:30:40;;;;;;;2.50;0.80;;;;;;;;;;5022234;28;20048;-63
2022/04/02 05:33:08;;;;;;;4.50;1.00;;;;;;;;;;5023095;28;20053;-63
2022/04/02 05:35:35;;;;;;;2.63;0.90;;;;;;;;;;5023193;28;20052;-64
2022/04/02 05:38:02;;;;;;;4.03;1.00;;;;;;;;;;5034843;28;20108;-63
2022/04/02 05:40:28;;;;;;;5.22;0.98;;;;;;;;;;5023774;28;20053;-65
2022/04/02 05:42:55;;;;;;;4.20;0.82;;;;;;;;;;5023116;28;20770;-62
2022/04/02 05:45:22;;;;;;;4.82;1.23;;;;;;;;;;5022053;28;20075;-63
2022/04/02 05:47:49;;;;;;;4.40;1.05;;;;;;;;;;5023755;28;20036;-64
2022/04/02 05:50:17;;;;;;;4.80;1.30;;;;;;;;;;5027200;28;20033;-63
2022/04/02 05:52:43;;;;;;;3.53;1.20;;;;;;;;;;5027108;28;20068;-64
2022/04/02 05:55:11;;;;;;;3.15;1.10;;;;;;;;;;5038568;28;20041;-63
2022/04/02 05:57:38;;;;;;;9.98;1.48;;;;;;;;;;5026351;28;20046;-65
2022/04/02 06:00:06;;;;;;;7.28;1.25;;;;;;;;;;5028414;28;20069;-64
2022/04/02 06:02:32;;;;;;;6.75;1.20;;;;;;;;;;5025174;28;20138;-64
2022/04/02 06:05:00;;;;;;;3.88;1.00;;;;;;;;;;5041655;28;20756;-63
2022/04/02 06:07:27;;;;;;;3.70;1.13;;;;;;;;;;5026538;28;20045;-62
2022/04/02 06:09:54;;;;;;;5.93;1.48;;;;;;;;;;5025938;28;20045;-64
2022/04/02 06:12:21;;;;;;;3.15;1.08;;;;;;;;;;5027006;28;20041;-65
2022/04/02 06:14:48;;;;;;;6.65;1.50;;;;;;;;;;5028053;28;20037;-64
2022/04/02 06:17:14;;;;;;;4.35;1.23;;;;;;;;;;5018676;28;20176;-63
2022/04/02 06:19:41;;;;;;;9.70;2.03;;;;;;;;;;5025675;28;20633;-63
2022/04/02 06:22:09;;;;;;;6.75;1.90;;;;;;;;;;5026987;28;20746;-63
2022/04/02 06:24:35;;;;;;;8.95;1.90;;;;;;;;;;5024887;28;20073;-63
2022/04/02 06:27:02;;;;;;;4.13;1.60;;;;;;;;;;5027328;28;20037;-63
2022/04/02 06:29:29;;;;;;;6.53;1.42;;;;;;;;;;5026779;28;20040;-65
2022/04/02 06:31:56;;;;;;;7.10;1.77;;;;;;;;;;5027384;28;20501;-63
2022/04/02 06:34:23;;;;;;;9.35;1.52;;;;;;;;;;5025873;28;20045;-64
2022/04/02 06:36:50;;;;;;;3.13;1.25;;;;;;;;;;5026555;28;20037;-63
2022/04/02 06:39:17;;;;;;;5.32;1.35;;;;;;;;;;5011845;28;20234;-65
2022/04/02 06:41:44;;;;;;;5.00;1.40;;;;;;;;;;5008992;28;20141;-64
2022/04/02 06:44:11;;;;;;;3.72;1.40;;;;;;;;;;4994697;28;20192;-64
2022/04/02 06:46:37;;;;;;;6.07;1.50;;;;;;;;;;5010826;28;20042;-63
2022/04/02 06:49:06;;;;;;;3.90;1.40;;;;;;;;;;5010336;28;20056;-65
2022/04/02 06:51:33;;;;;;;4.28;1.45;;;;;;;;;;5011130;28;20099;-62
2022/04/02 06:54:00;;;;;;;5.90;1.50;;;;;;;;;;5011354;28;20133;-63
2022/04/02 06:56:27;;;;;;;16.80;2.15;;;;;;;;;;5011048;28;20142;-63
2022/04/02 06:58:54;;;;;;;7.63;2.42;;;;;;;;;;5009925;28;21017;-62
2022/04/02 07:01:21;;;;;;;4.45;1.85;;;;;;;;;;5009110;28;20395;-64
2022/04/02 07:03:47;;;;;;;4.40;1.27;;;;;;;;;;5010476;28;20033;-62
2022/04/02 07:06:14;;;;;;;10.23;1.77;;;;;;;;;;5011004;28;20088;-64
2022/04/02 07:08:41;;;;;;;9.27;1.60;;;;;;;;;;5010982;28;20038;-65
2022/04/02 07:11:08;;;;;;;4.70;1.10;;;;;;;;;;5010972;28;20038;-63
2022/04/02 07:13:34;;;;;;;12.93;1.40;;;;;;;;;;5008840;28;20434;-64
2022/04/02 07:16:05;;;;;;;7.35;1.60;;;;;;;;;;5014842;28;20049;-63
2022/04/02 07:18:35;;;;;;;3.65;1.23;;;;;;;;;;5025971;28;20048;-64
2022/04/02 07:21:02;;;;;;;14.93;1.77;;;;;;;;;;5026155;28;20080;-63
2022/04/02 07:23:29;;;;;;;8.50;1.48;;;;;;;;;;5026814;28;20076;-64
2022/04/02 07:25:56;;;;;;;7.45;1.50;;;;;;;;;;5027360;28;20087;-63
2022/04/02 07:28:25;;;;;;;6.13;1.50;;;;;;;;;;5025957;28;20057;-64
2022/04/02 07:30:52;;;;;;;10.77;1.60;;;;;;;;;;5026673;28;20041;-64
2022/04/02 07:33:19;;;;;;;7.55;1.70;;;;;;;;;;5026558;28;20102;-63
2022/04/02 07:35:54;;;;;;;6.65;1.73;;;;;;;;;;5025452;28;20041;-64
2022/04/02 07:38:33;;;;;;;6.63;1.30;;;;;;;;;;5025169;28;20928;-64
2022/04/02 07:41:22;;;;;;;8.70;1.70;;;;;;;;;;5024636;28;20045;-66
2022/04/02 07:43:56;;;;;;;5.72;1.30;;;;;;;;;;5023152;28;20033;-63
2022/04/02 07:46:24;;;;;;;4.40;1.85;;;;;;;;;;5022466;28;20076;-64
2022/04/02 07:48:51;;;;;;;13.13;2.33;;;;;;;;;;5023940;28;20052;-63
2022/04/02 07:51:19;;;;;;;4.13;1.50;;;;;;;;;;5023948;28;20405;-63
2022/04/02 07:53:50;;;;;;;8.10;1.67;;;;;;;;;;5022766;28;20061;-63
2022/04/02 07:56:20;;;;;;;4.60;1.80;;;;;;;;;;5026352;28;20049;-64
2022/04/02 07:58:52;;;;;;;8.07;1.83;;;;;;;;;;5025261;28;20065;-64
2022/04/02 08:01:19;;;;;;;5.63;2.00;;;;;;;;;;5024163;28;20470;-62
2022/04/02 08:03:46;;;;;;;10.75;1.55;;;;;;;;;;5023234;28;20042;-63
2022/04/02 08:06:14;;;;;;;6.13;1.50;;;;;;;;;;5024052;28;20057;-63
2022/04/02 08:08:42;;;;;;;8.77;1.92;;;;;;;;;;5021687;28;20149;-64
2022/04/02 08:11:12;;;;;;;9.68;2.05;;;;;;;;;;5023701;28;20056;-64
2022/04/02 08:13:41;;;;;;;9.52;1.98;;;;;;;;;;5022703;28;20154;-64
2022/04/02 08:16:08;;;;;;;10.07;1.80;;;;;;;;;;5020555;28;20077;-62
2022/04/02 08:18:35;;;;;;;6.10;1.80;;;;;;;;;;5022398;28;20144;-63
2022/04/02 08:21:02;;;;;;;13.60;1.98;;;;;;;;;;5023651;28;21408;-63
2022/04/02 08:23:29;;;;;;;7.40;1.83;;;;;;;;;;5020687;28;20072;-64
2022/04/02 08:26:09;;;;;;;4.28;1.45;;;;;;;;;;5022444;28;20041;-64
2022/04/02 08:28:44;;;;;;;6.63;1.90;;;;;;;;;;5021095;28;20517;-63
2022/04/02 08:31:23;;;;;;;9.02;1.70;;;;;;;;;;5021516;28;20163;-65
2022/04/02 08:33:59;;;;;;;7.57;1.80;;;;;;;;;;5036138;28;20087;-64
2022/04/02 08:36:28;;;;;;;4.15;1.55;;;;;;;;;;5021665;28;20057;-63
2022/04/02 08:39:05;;;;;;;11.45;1.65;;;;;;;;;;5023395;28;20477;-65
2022/04/02 08:41:51;;;;;;;5.10;1.80;;;;;;;;;;5022238;28;20042;-64
2022/04/02 08:44:17;;;;;;;9.45;2.15;;;;;;;;;;5022390;28;20065;-64
2022/04/02 08:47:04;;;;;;;7.28;1.73;;;;;;;;;;5019894;28;20075;-62
2022/04/02 08:49:34;;;;;;;6.72;1.60;;;;;;;;;;4997586;28;20045;-62
2022/04/02 08:52:10;;;;;;;10.20;1.83;;;;;;;;;;5020767;28;20136;-64
2022/04/02 08:54:40;;;;;;;15.80;2.42;;;;;;;;;;5020675;28;20076;-63
2022/04/02 08:57:25;;;;;;;8.75;1.88;;;;;;;;;;5023718;28;20038;-63
2022/04/02 09:00:03;;;;;;;11.70;2.00;;;;;;;;;;5022905;28;20045;-63
2022/04/02 09:02:42;;;;;;;7.38;1.67;;;;;;;;;;5024809;28;20213;-64
2022/04/02 09:05:08;;;;;;;8.27;1.20;;;;;;;;;;5024219;28;20107;-64
2022/04/02 09:07:41;;;;;;;7.50;1.70;;;;;;;;;;5022701;28;20064;-62
2022/04/02 09:10:11;;;;;;;7.77;1.80;;;;;;;;;;5024125;28;20045;-63
2022/04/02 09:12:56;;;;;;;4.38;1.63;;;;;;;;;;5022955;28;20294;-61
2022/04/02 09:15:29;;;;;;;6.22;1.63;;;;;;;;;;5023989;28;20053;-65
2022/04/02 09:18:11;;;;;;;7.55;1.63;;;;;;;;;;5024031;28;20398;-63
2022/04/02 09:20:50;;;;;;;7.55;1.95;;;;;;;;;;5022112;28;20049;-63
2022/04/02 09:23:35;;;;;;;10.18;1.58;;;;;;;;;;5025160;28;20051;-63
2022/04/02 09:26:14;;;;;;;5.50;1.52;;;;;;;;;;5037652;28;20494;-63
2022/04/02 09:29:02;;;;;;;5.25;1.70;;;;;;;;;;5027900;28;20079;-64
2022/04/02 09:31:47;;;;;;;9.50;2.13;;;;;;;;;;5052993;28;20045;-63
2022/04/02 09:34:23;;;;;;;7.18;1.98;;;;;;;;;;5056911;28;20048;-64
2022/04/02 09:37:01;;;;;;;5.18;1.48;;;;;;;;;;5048370;28;20222;-64
2022/04/02 09:39:58;;;;;;;5.82;1.70;;;;;;;;;;5058936;28;20049;-66
2022/04/02 09:42:25;;;;;;;10.30;1.88;;;;;;;;;;5025410;28;20045;-63
2022/04/02 09:45:04;;;;;;;9.45;2.03;;;;;;;;;;5053314;28;20040;-64
2022/04/02 09:47:48;;;;;;;5.65;1.90;;;;;;;;;;5054659;28;20036;-64
2022/04/02 09:50:21;;;;;;;6.70;1.88;;;;;;;;;;5056337;28;20575;-62
2022/04/02 09:53:14;;;;;;;7.30;1.67;;;;;;;;;;5053886;28;20060;-63
2022/04/02 09:55:56;;;;;;;3.75;1.45;;;;;;;;;;5054955;28;20036;-64
2022/04/02 09:58:41;;;;;;;4.07;1.58;;;;;;;;;;5056193;28;20048;-62
2022/04/02 10:01:09;;;;;;;8.68;2.03;;;;;;;;;;5057082;28;20064;-63
2022/04/02 10:03:45;;;;;;;8.85;2.13;;;;;;;;;;5046230;28;20041;-63
2022/04/02 10:06:32;;;;;;;7.13;2.13;;;;;;;;;;5036279;28;20099;-62
2022/04/02 10:09:04;;;;;;;14.93;2.08;;;;;;;;;;5035850;28;20518;-64
2022/04/02 10:11:32;;;;;;;10.43;2.47;;;;;;;;;;5044620;28;20516;-63
2022/04/02 10:13:59;;;;;;;11.27;1.80;;;;;;;;;;5043604;28;20396;-63
2022/04/02 10:16:27;;;;;;;7.43;1.80;;;;;;;;;;5034443;28;20164;-63
2022/04/02 10:18:59;;;;;;;6.68;1.48;;;;;;;;;;5046510;28;20182;-64
2022/04/02 10:21:30;;;;;;;3.95;1.60;;;;;;;;;;5058958;28;20037;-63
2022/04/02 10:24:05;;;;;;;8.50;1.52;;;;;;;;;;5044050;28;20079;-62
2022/04/02 10:26:37;;;;;;;5.30;1.30;;;;;;;;;;5043568;28;20388;-63
2022/04/02 10:29:10;;;;;;;4.28;1.20;;;;;;;;;;5044464;28;20501;-64
2022/04/02 10:31:37;;;;;;;6.82;1.55;;;;;;;;;;5043807;28;20394;-64
2022/04/02 10:34:17;;;;;;;8.20;1.20;;;;;;;;;;5046088;28;20591;-63
2022/04/02 10:36:52;;;;;;;8.10;1.15;;;;;;;;;;5045664;28;20071;-60
2022/04/02 10:39:22;;;;;;;4.78;1.30;;;;;;;;;;5039424;28;20048;-62
2022/04/02 10:41:51;;;;;;;5.05;1.55;;;;;;;;;;5035443;28;20135;-62
2022/04/02 10:44:37;;;;;;;7.65;1.20;;;;;;;;;;5056064;28;20052;-63
2022/04/02 10:47:03;;;;;;;5.50;1.00;;;;;;;;;;5043430;28;20036;-63
2022/04/02 10:49:35;;;;;;;2.53;0.80;;;;;;;;;;5041586;28;20066;-63
2022/04/02 10:52:03;;;;;;;3.20;1.33;;;;;;;;;;5042994;28;20120;-64
2022/04/02 10:54:30;;;;;;;4.97;1.10;;;;;;;;;;5041970;28;20037;-62
2022/04/02 10:56:57;;;;;;;5.63;1.35;;;;;;;;;;5043081;28;20037;-62
2022/04/02 10:59:30;;;;;;;6.05;1.13;;;;;;;;;;5040886;28;20083;-63
2022/04/02 11:02:00;;;;;;;3.22;1.00;;;;;;;;;;5026091;28;20040;-63
2022/04/02 11:04:32;;;;;;;3.83;0.95;;;;;;;;;;5039312;28;20048;-61
2022/04/02 11:07:00;;;;;;;3.80;0.93;;;;;;;;;;5042775;28;20044;-62
2022/04/02 11:09:39;;;;;;;3.00;0.95;;;;;;;;;;5031250;28;20658;-62
2022/04/02 11:12:15;;;;;;;3.42;1.10;;;;;;;;;;5044045;28;20037;-64
2022/04/02 11:14:46;;;;;;;3.90;1.20;;;;;;;;;;5041987;28;20539;-63
2022/04/02 11:17:29;;;;;;;2.75;0.85;;;;;;;;;;5033042;28;20666;-63
2022/04/02 11:20:03;;;;;;;3.40;1.13;;;;;;;;;;5042476;28;20461;-63
2022/04/02 11:22:31;;;;;;;3.00;1.10;;;;;;;;;;5050263;28;20040;-61
2022/04/02 11:25:08;;;;;;;8.13;1.23;;;;;;;;;;5060461;28;20056;-65
2022/04/02 11:27:36;;;;;;;3.95;1.10;;;;;;;;;;5060160;28;20044;-62
2022/04/02 11:30:08;;;;;;;2.05;0.73;;;;;;;;;;5043289;28;20610;-63
2022/04/02 11:32:41;;;;;;;2.92;1.02;;;;;;;;;;5059450;28;20053;-63
2022/04/02 11:35:09;;;;;;;3.17;0.77;;;;;;;;;;5080736;28;20052;-62
2022/04/02 11:37:42;;;;;;;1.80;0.60;;;;;;;;;;5080599;28;20123;-62
2022/04/02 11:40:12;;;;;;;2.60;0.82;;;;;;;;;;5082406;28;20495;-63
2022/04/02 11:42:46;;;;;;;7.97;1.13;;;;;;;;;;5077724;28;20051;-63
2022/04/02 11:45:17;;;;;;;2.95;1.00;;;;;;;;;;5067057;28;20183;-63
2022/04/02 11:47:52;;;;;;;6.18;1.10;;;;;;;;;;5080778;28;20051;-64
2022/04/02 11:50:25;;;;;;;5.45;1.02;;;;;;;;;;5079445;28;20354;-63
2022/04/02 11:53:08;;;;;;;4.22;1.15;;;;;;;;;;5045744;28;20085;-63
2022/04/02 11:55:36;;;;;;;17.77;1.50;;;;;;;;;;5080263;28;20040;-61
2022/04/02 11:58:13;;;;;;;7.05;1.10;;;;;;;;;;5072304;28;20093;-62
2022/04/02 12:00:44;;;;;;;7.05;1.38;;;;;;;;;;5078309;28;20143;-63
2022/04/02 12:03:30;;;;;;;3.80;1.20;;;;;;;;;;5080908;28;20111;-62
2022/04/02 12:06:10;;;;;;;7.30;1.30;;;;;;;;;;5082682;28;20040;-63
2022/04/02 12:08:41;;;;;;;3.58;1.20;;;;;;;;;;5081281;28;20175;-64
2022/04/02 12:11:10;;;;;;;6.28;1.20;;;;;;;;;;5080655;28;20051;-62
2022/04/02 12:13:37;;;;;;;4.78;1.05;;;;;;;;;;5046758;28;20037;-61
2022/04/02 12:16:14;;;;;;;4.55;1.20;;;;;;;;;;5033817;28;20064;-61
2022/04/02 12:19:02;;;;;;;9.48;1.13;;;;;;;;;;5031893;28;20049;-61
2022/04/02 12:21:33;;;;;;;3.60;1.23;;;;;;;;;;5040555;28;20057;-60
2022/04/02 12:24:04;;;;;;;4.35;1.10;;;;;;;;;;5036696;28;20056;-63
2022/04/02 12:26:30;;;;;;;5.20;1.23;;;;;;;;;;5042623;28;20037;-63
2022/04/02 12:28:58;;;;;;;4.68;1.20;;;;;;;;;;5019973;28;20639;-62
2022/04/02 12:31:30;;;;;;;5.90;1.35;;;;;;;;;;5038176;28;20044;-63
2022/04/02 12:33:58;;;;;;;4.43;1.13;;;;;;;;;;5044343;28;20107;-64
2022/04/02 12:36:32;;;;;;;3.55;1.30;;;;;;;;;;5044232;28;20041;-64
2022/04/02 12:39:00;;;;;;;2.75;0.80;;;;;;;;;;5046202;28;20123;-64
2022/04/02 12:41:28;;;;;;;9.50;1.13;;;;;;;;;;5032774;28;20098;-64
2022/04/02 12:43:59;;;;;;;4.20;1.27;;;;;;;;;;5043326;28;20040;-64
2022/04/02 12:46:27;;;;;;;4.28;1.17;;;;;;;;;;5041124;28;20037;-64
2022/04/02 12:48:54;;;;;;;3.47;1.02;;;;;;;;;;5043789;28;20054;-64
2022/04/02 12:51:20;;;;;;;2.97;0.90;;;;;;;;;;5042106;28;20041;-64
2022/04/02 12:53:52;;;;;;;4.07;1.30;;;;;;;;;;5044113;28;20043;-63
2022/04/02 12:56:19;;;;;;;3.50;1.27;;;;;;;;;;5041805;28;20068;-65
2022/04/02 12:58:57;;;;;;;5.40;1.10;;;;;;;;;;5045715;28;20054;-65
2022/04/02 13:01:32;;;;;;;2.65;1.10;;;;;;;;;;5045754;28;20090;-66
2022/04/02 13:04:06;;;;;;;6.32;1.75;;;;;;;;;;5041077;28;20045;-64
2022/04/02 13:06:34;;;;;;;3.35;1.17;;;;;;;;;;5046784;28;20132;-63
2022/04/02 13:09:01;;;;;;;6.13;1.50;;;;;;;;;;5046814;28;20065;-63
2022/04/02 13:11:41;;;;;;;3.85;1.20;;;;;;;;;;5046049;28;20037;-63
2022/04/02 13:14:15;;;;;;;6.55;1.40;;;;;;;;;;5046361;28;20047;-63
2022/04/02 13:16:42;;;;;;;5.20;1.15;;;;;;;;;;5021851;28;20053;-63
2022/04/02 13:22:05;;;;;;;4.38;1.20;;;;;;;;;;5040457;28;20131;-63
2022/04/02 13:24:34;;;;;;;3.28;1.05;;;;;;;;;;5035813;28;20033;-63
2022/04/02 13:27:10;;;;;;;4.05;1.10;;;;;;;;;;5049533;28;20070;-64
2022/04/02 13:30:02;;;;;;;3.75;1.08;;;;;;;;;;5048628;28;20086;-64
2022/04/02 13:32:47;;;;;;;3.50;1.13;;;;;;;;;;5028339;28;20111;-63
2022/04/02 13:35:15;;;;;;;4.05;1.15;;;;;;;;;;5037753;28;20041;-63
2022/04/02 13:37:54;;;;;;;4.13;1.00;;;;;;;;;;5035151;28;20094;-63
2022/04/02 13:40:25;;;;;;;2.78;0.85;;;;;;;;;;5044769;28;20045;-63
2022/04/02 13:42:57;;;;;;;4.47;0.88;;;;;;;;;;5045412;28;20041;-64
2022/04/02 13:45:27;;;;;;;2.30;0.80;;;;;;;;;;5044833;28;20051;-64
2022/04/02 13:48:06;;;;;;;2.63;0.77;;;;;;;;;;5045161;28;20076;-63
2022/04/02 13:50:37;;;;;;;2.10;0.70;;;;;;;;;;5042820;28;20127;-63
2022/04/02 13:53:07;;;;;;;3.85;0.77;;;;;;;;;;5044988;28;20029;-63
2022/04/02 13:55:36;;;;;;;3.97;0.90;;;;;;;;;;5044153;28;20044;-63
2022/04/02 13:58:06;;;;;;;6.13;1.10;;;;;;;;;;5047274;28;20040;-63
2022/04/02 14:00:38;;;;;;;2.80;0.90;;;;;;;;;;5025175;28;20132;-63
2022/04/02 14:03:05;;;;;;;4.20;0.88;;;;;;;;;;5030895;28;20056;-64
2022/04/02 14:05:34;;;;;;;2.78;0.77;;;;;;;;;;5042856;28;20071;-64
2022/04/02 14:08:03;;;;;;;3.58;1.23;;;;;;;;;;5035176;28;20757;-63
2022/04/02 14:10:32;;;;;;;2.70;0.90;;;;;;;;;;5041238;28;20037;-64
2022/04/02 14:13:00;;;;;;;3.25;0.95;;;;;;;;;;5044016;28;20087;-64
2022/04/02 14:15:29;;;;;;;3.15;0.90;;;;;;;;;;5025110;28;20054;-64
2022/04/02 14:17:58;;;;;;;3.50;1.00;;;;;;;;;;5039420;28;20044;-64
2022/04/02 14:20:25;;;;;;;4.60;1.05;;;;;;;;;;5019806;28;20061;-64
2022/04/02 14:22:58;;;;;;;3.78;1.08;;;;;;;;;;5044586;28;20123;-64
2022/04/02 14:25:44;;;;;;;8.32;0.90;;;;;;;;;;5045908;28;20103;-61
2022/04/02 14:28:13;;;;;;;4.88;1.40;;;;;;;;;;5044449;28;20041;-63
2022/04/02 14:31:05;;;;;;;5.28;1.40;;;;;;;;;;5039019;28;20037;-63
2022/04/02 14:33:48;;;;;;;3.97;1.33;;;;;;;;;;5040483;28;20040;-62
2022/04/02 14:36:33;;;;;;;13.85;2.38;;;;;;;;;;5044108;28;20163;-62
2022/04/02 14:39:18;;;;;;;9.82;2.00;;;;;;;;;;5034335;28;20095;-62
2022/04/02 14:42:06;;;;;;;3.63;1.17;;;;;;;;;;5042842;28;20068;-64
2022/04/02 14:44:51;;;;;;;7.20;1.10;;;;;;;;;;5042663;28;20529;-63
2022/04/02 14:47:37;;;;;;;6.38;1.40;;;;;;;;;;5044874;28;20099;-64
2022/04/02 14:50:22;;;;;;;5.45;1.50;;;;;;;;;;5043314;28;20045;-62
2022/04/02 14:52:55;;;;;;;5.95;1.10;;;;;;;;;;5043631;28;20045;-62
2022/04/02 14:55:51;;;;;;;3.58;1.15;;;;;;;;;;5043273;28;20116;-62
2022/04/02 14:58:34;;;;;;;5.05;1.20;;;;;;;;;;5001975;28;20120;-63
2022/04/02 15:01:10;;;;;;;5.60;1.30;;;;;;;;;;5058869;28;20452;-64
2022/04/02 15:03:54;;;;;;;3.45;1.10;;;;;;;;;;5043627;28;20049;-62
2022/04/02 15:06:32;;;;;;;5.13;1.40;;;;;;;;;;5042674;28;20044;-63
2022/04/02 15:09:05;;;;;;;7.85;1.90;;;;;;;;;;5043980;28;20075;-63